首页
METAR-TAF:

METAR-TAF

机场 :

科迪, 怀俄明州, 美国

纬度: 44-31N, 经度: 109-01W, 海拔: 1551米

当前天气观测

该预报发布于47分钟前的07:56 UTC
风速9节,风向西,有时为15节阵风,在西南西转西北之间变化
温度 4°C
湿度 44%
气压 1013 hPa
能見度: 16.1公里
天空无云

METAR: KCOD 120756Z AUTO 27009G15KT 230V300 10SM CLR 04/M07 A2992 RMK AO2 SLP141 T00441067

时间: 01:43 (08:43 UTC)

预报

该预报发布于3小时和17分钟前的05:26 UTC
预报有效从12日的 06点(UTC)到 13日的 06点(UTC)
风速12节,风向西,有时为20节阵风
能見度: 10公里
散云层高于12000英尺
多云层高于25000英尺
从 12日的 1600点(UTC)
风速12节,风向西,有时为20节阵风
能見度: 10公里
少量云层高于6000英尺
多云层高于10000英尺
从 13日的 0300点(UTC)
风速15节,风向西,有时为25节阵风
能見度: 10公里
散云层高于10000英尺

TAF: KCOD 120526Z 1206/1306 27012G20KT P6SM SCT120 BKN250 FM121600 26012G20KT P6SM FEW060 BKN100 FM130300 26015G25KT P6SM SCT100 AMD LTD TO CLD VIS AND WIND

超过4000个机场的气象观测和天气预报(METAR&TAF报告)。

可查询的气象台以黄色和红色小点在地图上表示。

将鼠标移到小点上方,可查看气象台名称。

然后点击查看天气观测和预报。

如需切换地图:点击带黑十字的绿色按钮放大地图;点击带横线的绿色按钮缩小地图;或者点击绿色箭头查看邻近地区的地图。


METAR-TAF: